Time;durP1;ratioP1;P1;durP2;ratioP2;P2;SDS_P1;SDS_P2;PMS_P1;PMS_P2;Temp;Humidity;BMP_temperature;BMP_pressure;BME280_temperature;BME280_humidity;BME280_pressure;Samples;Min_cycle;Max_cycle;Signal;HPM_P1;HPM_P2
2022/07/16 00:03:00;;;;;;;3.55;2.70;;;19.00;23.60;;;;;;5027208;28;20286;-82
2022/07/16 00:05:26;;;;;;;6.07;3.30;;;19.00;24.00;;;;;;5030771;28;20199;-82
2022/07/16 00:08:02;;;;;;;8.57;2.67;;;19.00;24.10;;;;;;5031162;28;20210;-82
2022/07/16 00:10:30;;;;;;;4.90;2.92;;;19.00;23.50;;;;;;5028946;28;20310;-82
2022/07/16 00:12:57;;;;;;;5.45;2.60;;;19.00;23.80;;;;;;5022645;28;20198;-83
2022/07/16 00:15:25;;;;;;;4.90;2.83;;;19.00;23.80;;;;;;5036214;28;20230;-82
2022/07/16 00:19:15;;;;;;;3.72;2.53;;;19.00;23.80;;;;;;5028345;28;20200;-83
2022/07/16 00:20:38;;;;;;;5.68;2.83;;;19.00;23.70;;;;;;5037306;28;20198;-82
2022/07/16 00:23:06;;;;;;;5.60;2.67;;;19.00;24.00;;;;;;5022604;28;20198;-82
2022/07/16 00:25:33;;;;;;;4.40;2.40;;;19.00;24.00;;;;;;5023229;28;20198;-82
2022/07/16 00:28:02;;;;;;;4.90;2.88;;;19.10;24.50;;;;;;5033902;28;20217;-82
2022/07/16 00:30:30;;;;;;;3.85;3.20;;;19.00;24.10;;;;;;5037947;28;20218;-82
2022/07/16 00:32:57;;;;;;;2.65;2.30;;;19.10;24.20;;;;;;5035865;28;20219;-82
2022/07/16 00:35:24;;;;;;;4.55;2.80;;;19.10;24.30;;;;;;5036820;28;20237;-82
2022/07/16 00:37:51;;;;;;;6.85;2.38;;;19.10;24.00;;;;;;5030159;28;20209;-82
2022/07/16 00:40:20;;;;;;;4.88;2.30;;;19.20;24.20;;;;;;5037195;28;20202;-82
2022/07/16 00:42:47;;;;;;;3.95;2.70;;;19.10;23.60;;;;;;5035817;28;20206;-82
2022/07/16 00:45:14;;;;;;;6.03;2.88;;;19.10;24.60;;;;;;5034716;28;20206;-82
2022/07/16 00:47:42;;;;;;;5.78;2.72;;;19.00;24.40;;;;;;5037919;28;20191;-82
2022/07/16 00:50:14;;;;;;;6.28;2.60;;;19.00;24.10;;;;;;5036637;28;20290;-82
2022/07/16 00:52:41;;;;;;;5.15;2.45;;;19.00;24.50;;;;;;5031882;28;20207;-82
2022/07/16 00:55:08;;;;;;;5.30;2.72;;;18.90;24.50;;;;;;5040970;28;20270;-82
2022/07/16 00:57:36;;;;;;;5.05;3.05;;;18.90;24.80;;;;;;5046870;28;20191;-83
2022/07/16 01:00:04;;;;;;;7.38;2.58;;;18.80;24.80;;;;;;5040927;28;20226;-82
2022/07/16 01:02:31;;;;;;;5.68;2.47;;;18.80;24.00;;;;;;5047520;28;20187;-82
2022/07/16 01:05:11;;;;;;;3.20;2.90;;;18.80;25.70;;;;;;5025381;28;20658;-82
2022/07/16 01:07:38;;;;;;;5.05;2.40;;;18.80;24.80;;;;;;5025782;28;20203;-82
2022/07/16 01:10:06;;;;;;;3.45;2.60;;;18.80;24.30;;;;;;5024774;28;20225;-82
2022/07/16 01:12:33;;;;;;;4.88;2.83;;;18.80;24.60;;;;;;5032377;28;20199;-82
2022/07/16 01:15:00;;;;;;;4.72;2.50;;;18.80;25.00;;;;;;5028154;28;20205;-82
2022/07/16 01:17:27;;;;;;;4.40;2.70;;;18.80;24.00;;;;;;5031868;28;20199;-82
2022/07/16 01:19:53;;;;;;;3.95;2.40;;;18.80;25.20;;;;;;5023450;28;20553;-82
2022/07/16 01:22:28;;;;;;;3.05;2.38;;;18.80;24.70;;;;;;5036960;28;20203;-82
2022/07/16 01:24:56;;;;;;;4.10;2.60;;;18.80;25.00;;;;;;5034366;28;20626;-82
2022/07/16 01:27:23;;;;;;;9.48;2.53;;;18.70;25.60;;;;;;5041143;28;20204;-82
2022/07/16 01:29:50;;;;;;;4.50;2.58;;;18.70;25.80;;;;;;5038074;28;20209;-82
2022/07/16 01:32:17;;;;;;;5.90;2.53;;;18.60;25.10;;;;;;5038609;28;20222;-82
2022/07/16 01:34:44;;;;;;;3.30;2.58;;;18.60;25.50;;;;;;5037908;28;20205;-82
2022/07/16 01:37:20;;;;;;;7.35;2.80;;;18.60;26.00;;;;;;5028964;28;20214;-82
2022/07/16 01:39:47;;;;;;;8.90;2.60;;;18.50;26.20;;;;;;5032906;28;20206;-82
2022/07/16 01:42:15;;;;;;;4.60;2.60;;;18.60;26.30;;;;;;5030980;28;20206;-82
2022/07/16 01:44:42;;;;;;;4.60;2.42;;;18.60;26.10;;;;;;5039503;28;20607;-82
2022/07/16 01:47:10;;;;;;;8.57;2.65;;;18.60;25.10;;;;;;5034093;28;20202;-82
2022/07/16 01:49:39;;;;;;;5.82;2.75;;;18.50;25.40;;;;;;5034197;28;20650;-82
2022/07/16 01:52:08;;;;;;;7.75;2.90;;;18.50;26.90;;;;;;5035699;28;20218;-82
2022/07/16 01:54:35;;;;;;;6.35;2.75;;;18.50;26.50;;;;;;5028736;28;20194;-82
2022/07/16 01:57:01;;;;;;;4.80;2.42;;;18.50;25.70;;;;;;5031568;28;20210;-82
2022/07/16 01:59:30;;;;;;;5.13;2.72;;;18.50;25.70;;;;;;5033852;28;20198;-82
2022/07/16 02:01:56;;;;;;;4.30;2.78;;;18.50;25.60;;;;;;5037034;28;20195;-82
2022/07/16 02:04:26;;;;;;;4.38;2.38;;;18.50;26.20;;;;;;5025571;28;20199;-82
2022/07/16 02:06:53;;;;;;;5.45;2.60;;;18.40;26.80;;;;;;5030408;28;20209;-82
2022/07/16 02:09:20;;;;;;;4.55;2.50;;;18.40;26.30;;;;;;5028414;28;20201;-82
2022/07/16 02:11:47;;;;;;;4.25;2.70;;;18.40;26.50;;;;;;5032401;28;20216;-82
2022/07/16 02:14:14;;;;;;;2.72;2.50;;;18.30;26.40;;;;;;5033827;28;20199;-85
2022/07/16 02:16:42;;;;;;;4.88;2.42;;;18.30;27.30;;;;;;5030761;28;20198;-85
2022/07/16 02:19:09;;;;;;;6.00;2.30;;;18.30;27.40;;;;;;5031740;28;20207;-85
2022/07/16 02:21:36;;;;;;;4.07;2.22;;;18.20;26.70;;;;;;5023300;28;20541;-85
2022/07/16 02:24:03;;;;;;;3.60;2.40;;;18.10;27.60;;;;;;5029757;28;20203;-85
2022/07/16 02:26:30;;;;;;;4.05;2.40;;;18.00;28.60;;;;;;5034286;28;20648;-85
2022/07/16 02:29:02;;;;;;;3.35;2.60;;;18.00;27.70;;;;;;5024650;28;20191;-85
2022/07/16 02:31:29;;;;;;;4.38;2.65;;;18.00;28.80;;;;;;5029010;28;20215;-85
2022/07/16 02:33:57;;;;;;;4.97;2.60;;;18.00;28.30;;;;;;5032015;28;20650;-85
2022/07/16 02:36:24;;;;;;;3.10;2.60;;;17.90;28.50;;;;;;5033610;28;20210;-85
2022/07/16 02:38:56;;;;;;;2.65;2.30;;;17.80;28.50;;;;;;5033158;28;20203;-85
2022/07/16 02:41:23;;;;;;;4.53;2.50;;;17.80;29.10;;;;;;5028301;28;20561;-85
2022/07/16 02:43:49;;;;;;;5.40;2.50;;;17.80;30.20;;;;;;5035485;28;20232;-85
2022/07/16 02:46:16;;;;;;;3.70;2.40;;;17.80;30.20;;;;;;5026776;28;20206;-85
2022/07/16 02:48:43;;;;;;;3.80;2.67;;;17.70;30.10;;;;;;5038810;28;20191;-85
2022/07/16 02:51:11;;;;;;;2.90;2.38;;;17.60;30.00;;;;;;5026929;28;20223;-85
2022/07/16 02:53:44;;;;;;;5.15;2.80;;;17.60;30.00;;;;;;5026425;28;20202;-85
2022/07/16 02:56:11;;;;;;;7.97;2.53;;;17.40;29.90;;;;;;5030729;28;20205;-85
2022/07/16 02:58:38;;;;;;;3.50;2.75;;;17.30;29.80;;;;;;5020764;28;20200;-84
2022/07/16 03:01:04;;;;;;;3.60;2.60;;;17.30;31.80;;;;;;5033361;28;20194;-85
2022/07/16 03:03:38;;;;;;;4.03;2.53;;;17.30;32.50;;;;;;5032438;28;20694;-85
2022/07/16 03:06:08;;;;;;;3.30;2.60;;;17.20;33.90;;;;;;5032266;28;20293;-85
2022/07/16 03:08:37;;;;;;;5.40;2.65;;;17.20;33.30;;;;;;5034979;28;20206;-85
2022/07/16 03:11:08;;;;;;;3.60;2.80;;;17.10;34.80;;;;;;5026847;28;20222;-85
2022/07/16 03:13:35;;;;;;;5.00;2.47;;;17.10;33.30;;;;;;5028978;28;20207;-85
2022/07/16 03:16:02;;;;;;;3.03;2.40;;;17.10;34.10;;;;;;5037494;28;20260;-85
2022/07/16 03:18:29;;;;;;;4.75;2.30;;;17.00;34.10;;;;;;5038947;28;20206;-85
2022/07/16 03:20:56;;;;;;;2.40;2.20;;;17.00;34.50;;;;;;5031471;28;20203;-85
2022/07/16 03:23:23;;;;;;;4.05;2.70;;;16.90;35.10;;;;;;5028966;28;20202;-84
2022/07/16 03:25:51;;;;;;;4.93;2.50;;;17.00;35.10;;;;;;5028317;28;20195;-85
2022/07/16 03:28:18;;;;;;;3.55;2.50;;;17.00;37.00;;;;;;5033756;28;20195;-85
2022/07/16 03:30:56;;;;;;;5.97;2.90;;;16.90;36.00;;;;;;5034939;28;20571;-85
2022/07/16 03:33:23;;;;;;;8.55;2.70;;;16.80;36.60;;;;;;5031248;28;20218;-85
2022/07/16 03:35:50;;;;;;;3.83;2.67;;;16.70;37.10;;;;;;5029364;28;20206;-85
2022/07/16 03:41:06;;;;;;;2.97;2.50;;;16.70;36.40;;;;;;5038314;28;20324;-85
2022/07/16 03:43:44;;;;;;;3.22;2.30;;;16.80;36.10;;;;;;5030014;28;20212;-85
2022/07/16 03:46:13;;;;;;;5.68;2.58;;;16.90;38.50;;;;;;5029977;28;20202;-85
2022/07/16 03:48:40;;;;;;;2.50;2.30;;;17.00;36.20;;;;;;5025656;28;20226;-85
2022/07/16 03:51:08;;;;;;;5.30;2.45;;;17.10;36.30;;;;;;5030387;28;20227;-85
2022/07/16 03:53:39;;;;;;;2.97;2.53;;;17.20;35.20;;;;;;5035161;28;20214;-85
2022/07/16 03:56:08;;;;;;;4.88;2.60;;;17.20;36.60;;;;;;5029311;28;20240;-85
2022/07/16 03:58:36;;;;;;;3.15;2.72;;;17.10;36.50;;;;;;5031802;28;20286;-85
2022/07/16 04:01:02;;;;;;;3.25;2.50;;;17.10;34.40;;;;;;5033989;28;20195;-84
2022/07/16 04:03:33;;;;;;;6.55;2.60;;;17.00;34.90;;;;;;5035863;28;20207;-85
2022/07/16 04:06:02;;;;;;;3.45;2.50;;;17.10;37.60;;;;;;5030606;28;20557;-85
2022/07/16 04:08:32;;;;;;;3.45;2.25;;;17.10;37.50;;;;;;5036569;28;20211;-85
2022/07/16 04:10:59;;;;;;;3.55;2.67;;;17.10;38.00;;;;;;5033778;28;20233;-85
2022/07/16 04:13:27;;;;;;;4.25;2.40;;;17.10;38.00;;;;;;5033218;28;20209;-85
2022/07/16 04:15:54;;;;;;;3.53;2.78;;;17.10;38.90;;;;;;5036909;28;20194;-85
2022/07/16 04:18:26;;;;;;;2.83;2.42;;;17.20;38.40;;;;;;5029083;28;20202;-85
2022/07/16 04:21:02;;;;;;;2.78;2.25;;;17.20;37.00;;;;;;5038955;28;20680;-85
2022/07/16 04:23:29;;;;;;;4.72;2.47;;;17.20;38.70;;;;;;5034271;28;20209;-85
2022/07/16 04:25:56;;;;;;;7.22;2.63;;;17.20;38.20;;;;;;5036590;28;20213;-85
2022/07/16 04:28:23;;;;;;;2.92;2.50;;;17.20;39.60;;;;;;5038279;28;20201;-85
2022/07/16 04:30:51;;;;;;;4.32;2.78;;;17.10;40.10;;;;;;5035977;28;20229;-85
2022/07/16 04:33:18;;;;;;;4.82;2.72;;;16.90;39.90;;;;;;5030679;28;20219;-85
2022/07/16 04:35:45;;;;;;;4.00;2.40;;;16.90;41.60;;;;;;5021254;28;20209;-85
2022/07/16 04:38:13;;;;;;;4.10;2.45;;;16.90;44.40;;;;;;5034979;28;20208;-85
2022/07/16 04:40:39;;;;;;;6.47;2.60;;;16.90;44.30;;;;;;5034475;28;20203;-85
2022/07/16 04:43:06;;;;;;;6.03;2.83;;;16.90;44.20;;;;;;5034742;28;20673;-85
2022/07/16 04:45:33;;;;;;;3.75;2.72;;;17.10;44.60;;;;;;5025159;28;20202;-85
2022/07/16 04:48:01;;;;;;;4.15;2.30;;;17.20;44.30;;;;;;5035733;28;20660;-85
2022/07/16 04:50:28;;;;;;;5.00;2.50;;;17.20;46.30;;;;;;5031902;28;20195;-85
2022/07/16 04:52:55;;;;;;;3.38;2.60;;;17.20;46.70;;;;;;5037890;28;20211;-85
2022/07/16 04:55:21;;;;;;;4.55;2.58;;;17.30;47.90;;;;;;5035393;28;20233;-85
2022/07/16 04:57:48;;;;;;;6.60;2.90;;;17.30;48.50;;;;;;5034996;28;20205;-85
2022/07/16 05:00:27;;;;;;;3.72;3.05;;;17.40;49.40;;;;;;5031037;28;20552;-85
2022/07/16 05:02:59;;;;;;;4.43;2.88;;;17.30;48.50;;;;;;5034538;28;20565;-84
2022/07/16 05:05:30;;;;;;;4.22;3.13;;;17.30;48.60;;;;;;5031498;28;20195;-84
2022/07/16 05:07:57;;;;;;;4.97;2.97;;;17.50;47.10;;;;;;5025154;28;20206;-85
2022/07/16 05:10:25;;;;;;;3.35;2.70;;;17.50;45.70;;;;;;5021445;28;20199;-85
2022/07/16 05:12:52;;;;;;;5.95;3.30;;;17.80;42.30;;;;;;5031584;28;20226;-85
2022/07/16 05:15:19;;;;;;;3.92;2.83;;;18.00;40.70;;;;;;5028069;28;20198;-85
2022/07/16 05:17:46;;;;;;;7.65;3.10;;;18.20;39.30;;;;;;5020509;28;20665;-83
2022/07/16 05:20:14;;;;;;;7.07;3.20;;;18.60;35.10;;;;;;5025456;28;20195;-83
2022/07/16 05:22:46;;;;;;;4.78;3.08;;;18.80;33.00;;;;;;5023949;28;20206;-83
2022/07/16 05:25:13;;;;;;;3.85;3.15;;;18.80;31.70;;;;;;5028971;28;20851;-83
2022/07/16 05:27:40;;;;;;;6.38;2.88;;;18.60;32.50;;;;;;5027996;28;20561;-82
2022/07/16 05:30:10;;;;;;;6.82;2.92;;;18.50;33.30;;;;;;5032738;28;20205;-82
2022/07/16 05:32:37;;;;;;;4.55;2.88;;;18.50;31.00;;;;;;5030073;28;20231;-82
2022/07/16 05:35:05;;;;;;;5.25;3.10;;;18.80;31.20;;;;;;5024079;28;20195;-83
2022/07/16 05:37:32;;;;;;;4.13;2.70;;;19.30;32.50;;;;;;5027948;28;20285;-82
2022/07/16 05:40:00;;;;;;;5.57;3.78;;;19.60;31.70;;;;;;5025980;28;20195;-82
2022/07/16 05:42:27;;;;;;;4.47;2.58;;;19.70;30.00;;;;;;5032596;28;20211;-82
2022/07/16 05:44:53;;;;;;;4.35;2.80;;;19.80;30.80;;;;;;5031864;28;20198;-83
2022/07/16 05:47:20;;;;;;;4.28;2.70;;;19.80;29.10;;;;;;5034140;28;20199;-82
2022/07/16 05:49:47;;;;;;;4.22;3.10;;;19.80;28.90;;;;;;5023909;28;20700;-82
2022/07/16 05:52:14;;;;;;;3.90;2.85;;;19.70;30.30;;;;;;5036166;28;20229;-82
2022/07/16 05:54:41;;;;;;;4.40;2.83;;;19.60;28.70;;;;;;5027340;28;20704;-82
2022/07/16 05:57:09;;;;;;;5.05;2.85;;;19.60;27.90;;;;;;5033913;28;20207;-82
2022/07/16 05:59:36;;;;;;;3.90;2.92;;;19.90;27.30;;;;;;5026215;28;20209;-83
2022/07/16 06:02:04;;;;;;;3.92;2.67;;;20.20;26.70;;;;;;5029487;28;20218;-83
2022/07/16 06:04:30;;;;;;;6.95;2.92;;;20.90;24.20;;;;;;5023914;28;20206;-83
2022/07/16 06:06:57;;;;;;;6.63;2.58;;;21.10;22.50;;;;;;5023944;28;20652;-83
2022/07/16 06:09:24;;;;;;;4.28;2.65;;;20.90;22.40;;;;;;5023032;28;20203;-83
2022/07/16 06:11:51;;;;;;;3.35;2.90;;;20.50;24.40;;;;;;5028283;28;20223;-83
2022/07/16 06:14:19;;;;;;;5.60;2.97;;;20.30;24.70;;;;;;5036963;28;20199;-83
2022/07/16 06:16:46;;;;;;;5.30;3.20;;;20.10;25.40;;;;;;5035855;28;20202;-82
2022/07/16 06:19:13;;;;;;;4.45;2.83;;;19.90;25.40;;;;;;5033695;28;20199;-83
2022/07/16 06:21:50;;;;;;;5.13;2.80;;;19.90;24.80;;;;;;5034984;28;20205;-83
2022/07/16 06:24:17;;;;;;;3.95;2.80;;;19.70;25.70;;;;;;5031693;28;20224;-83
2022/07/16 06:26:47;;;;;;;5.93;2.90;;;19.60;25.90;;;;;;5037335;28;20223;-82
2022/07/16 06:29:15;;;;;;;6.10;2.70;;;19.60;26.50;;;;;;5035181;28;20241;-83
2022/07/16 06:31:46;;;;;;;6.80;3.10;;;19.50;27.30;;;;;;5035015;28;20693;-82
2022/07/16 06:34:13;;;;;;;5.40;2.72;;;19.40;25.40;;;;;;5032861;28;20202;-83
2022/07/16 06:36:44;;;;;;;3.78;2.60;;;19.50;25.00;;;;;;5036249;28;20209;-83
2022/07/16 06:39:11;;;;;;;4.97;2.90;;;19.60;25.80;;;;;;5034030;28;20205;-83
2022/07/16 06:41:38;;;;;;;6.03;2.58;;;19.70;25.40;;;;;;5030392;28;20205;-83
2022/07/16 06:44:26;;;;;;;3.67;2.38;;;19.70;25.90;;;;;;5031568;28;20233;-83
2022/07/16 06:46:55;;;;;;;4.97;2.47;;;19.80;25.70;;;;;;5036787;28;20210;-83
2022/07/16 06:49:22;;;;;;;4.32;2.90;;;19.90;25.10;;;;;;5041663;28;20199;-81
2022/07/16 06:51:49;;;;;;;5.70;2.70;;;19.80;27.40;;;;;;5037481;28;20218;-82
2022/07/16 06:54:16;;;;;;;8.65;3.00;;;19.80;25.80;;;;;;5037302;28;20209;-83
2022/07/16 06:56:43;;;;;;;5.97;2.83;;;19.80;25.10;;;;;;5037177;28;20203;-83
2022/07/16 06:59:10;;;;;;;3.65;2.50;;;19.90;24.40;;;;;;5039382;28;20285;-83
2022/07/16 07:01:36;;;;;;;3.70;2.67;;;19.90;23.90;;;;;;5029833;28;20199;-83
2022/07/16 07:04:10;;;;;;;4.70;2.97;;;20.10;24.40;;;;;;5035847;28;20210;-83
2022/07/16 07:06:36;;;;;;;5.50;2.60;;;20.10;24.10;;;;;;5034476;28;20201;-83
2022/07/16 07:09:03;;;;;;;7.07;2.70;;;20.20;23.20;;;;;;5029271;28;20207;-83
2022/07/16 07:11:30;;;;;;;7.43;2.67;;;20.30;23.90;;;;;;5033024;28;20209;-83
2022/07/16 07:13:57;;;;;;;3.40;2.78;;;20.50;23.20;;;;;;5032832;28;20294;-83
2022/07/16 07:16:24;;;;;;;4.50;2.60;;;20.60;23.50;;;;;;5035481;28;20702;-83
2022/07/16 07:19:02;;;;;;;4.15;2.65;;;20.60;23.80;;;;;;5038715;28;20210;-83
2022/07/16 07:21:31;;;;;;;3.33;2.50;;;20.60;21.90;;;;;;5032350;28;20195;-83
2022/07/16 07:23:58;;;;;;;3.60;2.67;;;20.60;21.90;;;;;;5032891;28;20265;-83
2022/07/16 07:26:25;;;;;;;7.65;2.92;;;20.70;23.20;;;;;;5029003;28;20595;-82
2022/07/16 07:28:51;;;;;;;4.68;2.65;;;20.70;22.10;;;;;;5036243;28;20203;-83
2022/07/16 07:31:20;;;;;;;3.78;2.70;;;20.70;21.60;;;;;;5032531;28;20673;-83
2022/07/16 07:33:47;;;;;;;3.03;2.20;;;20.80;20.90;;;;;;5031381;28;20219;-83
2022/07/16 07:36:14;;;;;;;4.38;2.17;;;20.90;19.90;;;;;;5029346;28;20642;-83
2022/07/16 07:38:42;;;;;;;4.63;2.22;;;21.00;19.30;;;;;;5026067;28;20560;-83
2022/07/16 07:41:09;;;;;;;4.05;2.42;;;21.10;19.30;;;;;;5031717;28;20193;-83
2022/07/16 07:43:36;;;;;;;4.05;2.45;;;21.10;19.00;;;;;;5033552;28;20708;-83
2022/07/16 07:46:03;;;;;;;3.65;2.50;;;21.20;20.50;;;;;;5029450;28;20217;-83
2022/07/16 07:48:33;;;;;;;7.50;2.55;;;21.40;20.00;;;;;;5032494;28;20668;-83
2022/07/16 07:51:00;;;;;;;3.67;2.72;;;21.50;19.40;;;;;;5031077;28;20227;-81
2022/07/16 07:53:27;;;;;;;3.67;2.70;;;21.40;19.20;;;;;;5032222;28;20337;-83
2022/07/16 07:55:55;;;;;;;4.57;2.50;;;21.50;19.30;;;;;;5030560;28;20222;-83
2022/07/16 07:58:22;;;;;;;6.78;2.72;;;21.50;20.10;;;;;;5024918;28;20200;-83
2022/07/16 08:00:51;;;;;;;4.00;2.45;;;21.60;19.00;;;;;;5029251;28;20491;-84
2022/07/16 08:03:17;;;;;;;5.68;2.40;;;21.70;19.60;;;;;;5029543;28;20203;-85
2022/07/16 08:05:46;;;;;;;5.50;2.53;;;21.80;19.70;;;;;;5030966;28;20671;-83
2022/07/16 08:08:12;;;;;;;8.88;2.55;;;21.80;19.90;;;;;;5037357;28;20203;-82
2022/07/16 08:10:39;;;;;;;9.75;3.20;;;22.00;19.10;;;;;;5031187;28;20647;-86
2022/07/16 08:13:08;;;;;;;5.53;2.58;;;22.00;20.20;;;;;;5020406;28;20223;-85
2022/07/16 08:15:35;;;;;;;4.35;2.75;;;22.10;19.00;;;;;;5025535;28;20203;-85
2022/07/16 08:18:01;;;;;;;2.50;2.30;;;22.20;18.10;;;;;;5032014;28;20600;-85
2022/07/16 08:20:28;;;;;;;3.03;2.70;;;22.10;18.90;;;;;;5019861;28;20207;-85
2022/07/16 08:22:55;;;;;;;4.20;2.80;;;22.20;19.10;;;;;;5022442;28;20205;-85
2022/07/16 08:28:10;;;;;;;5.20;2.80;;;22.40;17.90;;;;;;5026481;28;20218;-83
2022/07/16 08:30:37;;;;;;;6.32;2.70;;;22.90;18.50;;;;;;5022357;28;20191;-83
2022/07/16 08:33:03;;;;;;;4.63;2.70;;;24.30;16.10;;;;;;5019454;28;20223;-83
2022/07/16 08:35:30;;;;;;;4.78;3.10;;;26.10;13.20;;;;;;5021604;28;20209;-84
2022/07/16 08:37:57;;;;;;;10.48;3.17;;;28.00;9.80;;;;;;5024844;28;20202;-84
2022/07/16 08:40:25;;;;;;;5.53;2.80;;;29.40;8.80;;;;;;5027054;28;20205;-84
2022/07/16 08:42:52;;;;;;;4.15;2.80;;;29.60;7.80;;;;;;5026998;28;20212;-83
2022/07/16 08:45:22;;;;;;;3.80;3.00;;;29.10;7.60;;;;;;5018177;28;20206;-83
2022/07/16 08:47:51;;;;;;;4.85;3.15;;;28.50;8.80;;;;;;5021434;28;20199;-83
2022/07/16 08:50:26;;;;;;;6.68;3.38;;;27.70;9.50;;;;;;5021433;28;20198;-83
2022/07/16 08:52:54;;;;;;;6.07;2.80;;;27.50;9.00;;;;;;5030782;28;20214;-84
2022/07/16 08:55:23;;;;;;;5.32;3.70;;;28.20;7.80;;;;;;5019517;28;20233;-83
2022/07/16 08:57:51;;;;;;;3.95;3.35;;;29.90;5.60;;;;;;5021893;28;20203;-84
2022/07/16 09:00:20;;;;;;;4.82;3.42;;;30.50;6.10;;;;;;5025170;28;20553;-84
2022/07/16 09:02:48;;;;;;;6.18;3.60;;;30.90;5.10;;;;;;5028918;28;20684;-84
2022/07/16 09:05:27;;;;;;;5.03;3.78;;;31.40;4.70;;;;;;5028427;28;20211;-85
2022/07/16 09:08:04;;;;;;;3.90;3.60;;;32.10;3.10;;;;;;5028938;28;20202;-84
2022/07/16 09:10:35;;;;;;;5.43;3.53;;;33.30;1.00;;;;;;5024964;28;20226;-84
2022/07/16 09:13:02;;;;;;;3.95;3.58;;;33.40;1.10;;;;;;5025538;28;20202;-84
2022/07/16 09:15:33;;;;;;;4.88;3.90;;;33.90;1.00;;;;;;5036074;28;20294;-84
2022/07/16 09:18:18;;;;;;;4.28;3.80;;;33.20;1.20;;;;;;5036262;28;20198;-85
2022/07/16 09:20:48;;;;;;;4.53;3.75;;;33.50;1.60;;;;;;5031389;28;20712;-86
2022/07/16 09:23:25;;;;;;;4.38;3.97;;;33.90;1.50;;;;;;5029529;28;20562;-86
2022/07/16 09:25:54;;;;;;;4.68;4.07;;;33.90;1.00;;;;;;5033171;28;20293;-85
2022/07/16 09:28:22;;;;;;;4.30;3.90;;;33.30;1.00;;;;;;5033664;28;20281;-85
2022/07/16 09:30:50;;;;;;;4.78;4.30;;;34.20;1.00;;;;;;5024209;28;20221;-86
2022/07/16 09:33:19;;;;;;;4.50;4.10;;;34.80;1.00;;;;;;5025661;28;20226;-85
2022/07/16 09:35:47;;;;;;;5.13;4.22;;;34.40;1.00;;;;;;5028842;28;20224;-87
2022/07/16 09:38:14;;;;;;;5.22;4.70;;;34.40;1.00;;;;;;5029239;28;20209;-86
2022/07/16 09:40:44;;;;;;;5.00;4.53;;;34.80;1.00;;;;;;5021079;28;20614;-87
2022/07/16 09:43:22;;;;;;;5.72;4.50;;;34.30;1.00;;;;;;5027167;28;20269;-87
2022/07/16 09:45:58;;;;;;;4.80;4.40;;;34.10;1.00;;;;;;5030618;28;20202;-89
2022/07/16 09:48:27;;;;;;;6.47;4.40;;;34.30;1.00;;;;;;5035130;28;20198;-85
2022/07/16 09:51:15;;;;;;;6.88;4.15;;;33.30;1.00;;;;;;5033128;28;20198;-83
2022/07/16 09:53:46;;;;;;;4.30;3.88;;;33.30;3.70;;;;;;5035422;28;20229;-85
2022/07/16 09:56:15;;;;;;;4.65;4.25;;;33.10;1.00;;;;;;5035138;28;20208;-86
2022/07/16 09:58:47;;;;;;;4.50;4.10;;;33.50;1.00;;;;;;5033542;28;20269;-86
2022/07/16 10:01:17;;;;;;;5.03;4.63;;;33.50;1.00;;;;;;5026392;28;20245;-86
2022/07/16 10:03:45;;;;;;;4.60;4.30;;;33.90;1.40;;;;;;5019702;28;20199;-88
2022/07/16 10:06:13;;;;;;;4.55;4.15;;;34.30;1.00;;;;;;5035373;28;20565;-87
2022/07/16 10:08:41;;;;;;;4.80;4.40;;;34.50;1.00;;;;;;5025781;28;20213;-86
2022/07/16 10:11:15;;;;;;;4.95;4.55;;;34.60;1.00;;;;;;5034679;28;20201;-89
2022/07/16 10:13:44;;;;;;;5.78;4.55;;;34.90;1.00;;;;;;5024623;28;20595;-86
2022/07/16 10:16:11;;;;;;;5.50;5.00;;;35.20;1.00;;;;;;5028447;28;20198;-86
2022/07/16 10:18:41;;;;;;;5.35;4.55;;;34.90;1.00;;;;;;5031610;28;20197;-85
2022/07/16 10:21:11;;;;;;;4.80;4.22;;;35.00;1.00;;;;;;5025157;28;20213;-85
2022/07/16 10:23:40;;;;;;;4.82;4.50;;;34.70;1.00;;;;;;5030217;28;20669;-85
2022/07/16 10:26:09;;;;;;;5.18;4.78;;;34.30;1.00;;;;;;5024765;28;20201;-84
2022/07/16 10:28:38;;;;;;;5.47;5.00;;;34.60;1.00;;;;;;5023146;28;20198;-85
2022/07/16 10:31:36;;;;;;;6.85;4.65;;;35.30;1.00;;;;;;5023686;28;20194;-86
2022/07/16 10:34:36;;;;;;;5.13;4.63;;;35.50;1.00;;;;;;5033785;28;20202;-86
2022/07/16 10:37:26;;;;;;;4.78;4.07;;;34.50;1.00;;;;;;5027501;28;20194;-86
2022/07/16 10:40:10;;;;;;;5.13;4.32;;;34.20;1.60;;;;;;5021368;28;20641;-85
2022/07/16 10:42:37;;;;;;;5.15;3.70;;;34.90;1.00;;;;;;5034898;28;20513;-84
2022/07/16 10:45:05;;;;;;;5.13;4.00;;;33.60;1.00;;;;;;5031498;28;20209;-85
2022/07/16 10:47:50;;;;;;;4.78;3.58;;;33.20;1.00;;;;;;5033979;28;20205;-86
2022/07/16 10:50:32;;;;;;;7.50;4.03;;;33.00;1.00;;;;;;5036170;28;20198;-86
2022/07/16 10:53:04;;;;;;;4.75;3.90;;;32.90;1.00;;;;;;5035877;28;20650;-86
2022/07/16 10:55:38;;;;;;;6.45;3.50;;;32.20;1.70;;;;;;5025737;28;20233;-86
2022/07/16 10:58:09;;;;;;;5.35;3.70;;;31.30;4.60;;;;;;5026966;28;20270;-86
2022/07/16 11:00:39;;;;;;;8.57;3.72;;;31.50;2.50;;;;;;5024949;28;20627;-86
2022/07/16 11:03:06;;;;;;;4.28;3.88;;;32.20;2.50;;;;;;5026088;28;20262;-87
2022/07/16 11:05:33;;;;;;;5.50;4.00;;;32.00;2.70;;;;;;5025199;28;20203;-87
2022/07/16 11:08:10;;;;;;;4.07;3.42;;;31.90;3.10;;;;;;5027343;28;20214;-86
2022/07/16 11:10:39;;;;;;;4.45;3.65;;;31.60;1.00;;;;;;5028302;28;20202;-87
2022/07/16 11:13:15;;;;;;;4.10;3.53;;;31.70;2.50;;;;;;5025742;28;20222;-87
2022/07/16 11:15:42;;;;;;;4.13;3.35;;;31.40;4.30;;;;;;5026678;28;20586;-84
2022/07/16 11:18:15;;;;;;;4.82;3.65;;;30.70;3.60;;;;;;5022588;28;20248;-84
2022/07/16 11:20:43;;;;;;;4.90;3.47;;;29.80;3.60;;;;;;5023916;28;20198;-84
2022/07/16 11:23:13;;;;;;;7.82;4.70;;;29.00;5.10;;;;;;5022233;28;20206;-83
2022/07/16 11:26:00;;;;;;;3.85;3.00;;;28.50;7.70;;;;;;5027134;28;20281;-83
2022/07/16 11:28:27;;;;;;;5.95;3.40;;;28.50;8.50;;;;;;5027784;28;20190;-84
2022/07/16 11:31:01;;;;;;;5.45;3.10;;;28.40;8.80;;;;;;5023735;28;20285;-85
2022/07/16 11:33:33;;;;;;;4.72;3.35;;;28.10;10.30;;;;;;5021102;28;20546;-84
2022/07/16 11:36:05;;;;;;;4.63;3.22;;;27.80;6.00;;;;;;5024796;28;20202;-87
2022/07/16 11:38:34;;;;;;;4.28;3.10;;;27.60;8.10;;;;;;5020735;28;20203;-83
2022/07/16 11:41:02;;;;;;;7.40;3.35;;;27.50;9.00;;;;;;5024512;28;20804;-84
2022/07/16 11:43:35;;;;;;;3.50;3.20;;;27.30;7.20;;;;;;5024650;28;20564;-83
2022/07/16 11:46:03;;;;;;;7.43;3.30;;;27.30;8.60;;;;;;5019500;28;20605;-84
2022/07/16 11:48:36;;;;;;;6.53;2.95;;;27.30;7.00;;;;;;5018628;28;20215;-84
2022/07/16 11:51:07;;;;;;;3.80;3.40;;;27.30;6.40;;;;;;5016466;28;20206;-85
2022/07/16 11:53:37;;;;;;;9.70;5.07;;;27.20;6.00;;;;;;5024284;28;20248;-84
2022/07/16 11:56:05;;;;;;;7.30;3.55;;;27.00;9.40;;;;;;5023590;28;20198;-83
2022/07/16 11:58:39;;;;;;;5.63;3.30;;;26.90;8.60;;;;;;5024063;28;20225;-83
2022/07/16 12:01:07;;;;;;;5.10;3.28;;;27.00;7.30;;;;;;5023136;28;20749;-83
2022/07/16 12:03:34;;;;;;;11.70;5.15;;;27.10;8.20;;;;;;5034954;28;20198;-82
2022/07/16 12:06:02;;;;;;;7.85;4.65;;;27.00;7.60;;;;;;5036444;28;20198;-82
2022/07/16 12:08:36;;;;;;;7.18;4.40;;;27.10;8.50;;;;;;5028953;28;20217;-85
2022/07/16 12:11:06;;;;;;;7.22;4.43;;;27.10;7.80;;;;;;5033408;28;20230;-83
2022/07/16 12:13:38;;;;;;;6.32;3.05;;;27.00;8.30;;;;;;5030153;28;20222;-84
2022/07/16 12:16:05;;;;;;;3.40;2.97;;;26.90;7.30;;;;;;5024724;28;20199;-84
2022/07/16 12:18:32;;;;;;;4.45;4.05;;;26.90;7.40;;;;;;5025390;28;20297;-84
2022/07/16 12:21:26;;;;;;;12.77;8.95;;;27.00;8.60;;;;;;5029633;28;20198;-84
2022/07/16 12:23:53;;;;;;;9.38;6.97;;;27.00;9.70;;;;;;5025680;28;20206;-82
2022/07/16 12:26:30;;;;;;;7.00;4.47;;;26.80;8.90;;;;;;5027740;28;20198;-84
2022/07/16 12:28:58;;;;;;;7.13;3.92;;;27.00;8.40;;;;;;5031294;28;20646;-84
2022/07/16 12:31:28;;;;;;;5.63;4.03;;;27.20;7.60;;;;;;5025661;28;20234;-86
2022/07/16 12:33:56;;;;;;;18.58;10.57;;;27.30;7.10;;;;;;5019595;28;20233;-85
2022/07/16 12:36:29;;;;;;;6.90;3.75;;;27.20;9.30;;;;;;5020074;28;20202;-86
2022/07/16 12:38:59;;;;;;;4.75;3.70;;;27.10;8.80;;;;;;5016946;28;20191;-87
2022/07/16 12:41:29;;;;;;;4.43;3.63;;;26.90;7.70;;;;;;5019567;28;20636;-86
2022/07/16 12:43:58;;;;;;;4.65;3.13;;;26.80;8.90;;;;;;5017723;28;20210;-87
2022/07/16 12:46:27;;;;;;;6.57;3.20;;;26.90;8.80;;;;;;5021499;28;20214;-86
2022/07/16 12:48:57;;;;;;;4.40;3.10;;;27.00;7.60;;;;;;5018879;28;20203;-87
2022/07/16 12:51:27;;;;;;;6.05;3.50;;;27.00;8.20;;;;;;5018260;28;20198;-86
2022/07/16 12:53:54;;;;;;;5.47;3.00;;;27.00;8.90;;;;;;5018358;28;20211;-86
2022/07/16 12:59:07;;;;;;;4.65;2.90;;;27.00;8.00;;;;;;5020082;28;20205;-87
2022/07/16 13:01:34;;;;;;;4.72;2.83;;;27.10;9.90;;;;;;5023698;28;20195;-86
2022/07/16 13:04:03;;;;;;;3.47;2.90;;;26.90;8.00;;;;;;5022539;28;20202;-87
2022/07/16 13:06:31;;;;;;;3.40;2.90;;;26.70;7.90;;;;;;5023240;28;20234;-87
2022/07/16 13:08:58;;;;;;;3.05;2.63;;;26.70;8.20;;;;;;5018735;28;20273;-87
2022/07/16 13:11:26;;;;;;;4.18;3.35;;;26.60;8.60;;;;;;5013784;28;20636;-87